createdAt,value
2022-12-22T00:02:47.578Z,69.89
2022-12-22T00:07:50.975Z,70.13
2022-12-22T00:12:55.203Z,70.23
2022-12-22T00:17:58.431Z,69.84
2022-12-22T00:23:02.275Z,69.98
2022-12-22T00:28:14.816Z,69.97
2022-12-22T00:33:20.287Z,70.26
2022-12-22T00:38:23.699Z,70.40
2022-12-22T00:43:26.899Z,69.92
2022-12-22T00:48:30.054Z,69.81
2022-12-22T00:53:34.142Z,70.01
2022-12-22T00:58:37.369Z,69.93
2022-12-22T01:03:40.690Z,69.84
2022-12-22T01:08:44.443Z,70.28
2022-12-22T01:13:47.769Z,70.02
2022-12-22T01:18:50.817Z,69.85
2022-12-22T01:23:55.341Z,70.06
2022-12-22T01:28:59.067Z,70.38
2022-12-22T01:34:02.500Z,70.25
2022-12-22T01:39:06.011Z,70.29
2022-12-22T01:44:18.558Z,70.30
2022-12-22T01:49:27.749Z,70.84
2022-12-22T01:54:31.502Z,70.76
2022-12-22T01:59:35.224Z,70.76
2022-12-22T02:04:42.862Z,70.47
2022-12-22T02:10:03.739Z,70.24
2022-12-22T02:15:25.690Z,70.40
2022-12-22T02:20:37.477Z,70.12
2022-12-22T02:25:53.686Z,70.03
2022-12-22T02:30:57.620Z,69.93
2022-12-22T02:36:22.775Z,69.55
2022-12-22T02:41:49.902Z,69.35
2022-12-22T02:47:03.295Z,69.42
2022-12-22T02:52:33.537Z,69.78
2022-12-22T02:57:36.920Z,69.75
2022-12-22T03:02:40.849Z,70.20
2022-12-22T03:07:44.076Z,70.31
2022-12-22T03:12:47.256Z,70.16
2022-12-22T03:17:50.642Z,69.79
2022-12-22T03:22:53.993Z,69.95
2022-12-22T03:28:02.168Z,69.87
2022-12-22T03:33:06.474Z,69.65
2022-12-22T03:38:10.097Z,70.28
2022-12-22T03:43:17.398Z,70.07
2022-12-22T03:48:20.886Z,69.99
2022-12-22T03:53:24.390Z,70.60
2022-12-22T03:58:27.723Z,70.76
2022-12-22T04:03:31.282Z,70.92
2022-12-22T04:08:37.814Z,70.83
2022-12-22T04:13:41.267Z,71.13
2022-12-22T04:18:44.731Z,71.16
2022-12-22T04:23:48.159Z,70.94
2022-12-22T04:28:52.830Z,70.63
2022-12-22T04:33:56.446Z,70.69
2022-12-22T04:38:59.790Z,70.55
2022-12-22T04:44:03.413Z,70.01
2022-12-22T04:49:06.886Z,70.03
2022-12-22T04:54:11.780Z,69.77
2022-12-22T04:59:15.250Z,69.58
2022-12-22T05:04:23.520Z,68.99
2022-12-22T05:09:27.816Z,68.79
2022-12-22T05:14:32.131Z,69.04
2022-12-22T05:19:36.281Z,68.85
2022-12-22T05:24:39.450Z,68.68
2022-12-22T05:29:42.995Z,69.02
2022-12-22T05:34:47.849Z,68.75
2022-12-22T05:39:52.037Z,67.83
2022-12-22T05:44:55.507Z,68.08
2022-12-22T05:49:59.456Z,67.74
2022-12-22T05:55:03.666Z,67.46
2022-12-22T06:00:10.188Z,67.48
2022-12-22T06:05:17.450Z,67.32
2022-12-22T06:10:21.128Z,67.03
2022-12-22T06:15:24.505Z,66.94
2022-12-22T06:20:27.683Z,66.69
2022-12-22T06:25:30.948Z,66.47
2022-12-22T06:30:34.258Z,66.24
2022-12-22T06:35:37.793Z,66.55
2022-12-22T06:40:42.864Z,66.17
2022-12-22T06:45:47.344Z,66.25
2022-12-22T06:50:51.104Z,65.63
2022-12-22T06:55:54.412Z,65.41
2022-12-22T07:00:57.595Z,65.51
2022-12-22T07:06:01.727Z,64.64
2022-12-22T07:11:06.912Z,64.79
2022-12-22T07:16:11.436Z,64.42
2022-12-22T07:21:18.913Z,64.37
2022-12-22T07:26:22.392Z,63.76
2022-12-22T07:31:26.441Z,63.74
2022-12-22T07:36:29.833Z,63.63
2022-12-22T07:41:32.915Z,63.86
2022-12-22T07:46:40.331Z,63.65
2022-12-22T07:51:46.203Z,63.20
2022-12-22T07:56:49.823Z,63.14
2022-12-22T08:01:53.354Z,63.13
2022-12-22T08:06:57.011Z,62.90
2022-12-22T08:12:00.485Z,62.76
2022-12-22T08:17:04.051Z,62.76
2022-12-22T08:22:09.711Z,62.70
2022-12-22T08:27:22.419Z,62.06
2022-12-22T08:32:30.607Z,62.33
2022-12-22T08:37:37.434Z,61.93
2022-12-22T08:42:41.324Z,62.03
2022-12-22T08:47:44.676Z,61.60
2022-12-22T08:52:48.216Z,61.94
2022-12-22T08:57:56.162Z,61.43
2022-12-22T09:02:59.919Z,61.28
2022-12-22T09:08:03.543Z,61.35
2022-12-22T09:13:06.780Z,61.17
2022-12-22T09:18:09.955Z,61.43
2022-12-22T09:23:12.992Z,61.27
2022-12-22T09:28:16.983Z,61.59
2022-12-22T09:33:20.940Z,61.43
2022-12-22T09:38:43.918Z,60.71
2022-12-22T09:43:48.191Z,60.17
2022-12-22T09:48:53.140Z,60.16
2022-12-22T09:54:01.111Z,59.71
2022-12-22T09:59:16.656Z,59.86
2022-12-22T10:04:49.519Z,59.11
2022-12-22T10:09:54.362Z,59.03
2022-12-22T10:14:57.940Z,58.83
2022-12-22T10:20:21.281Z,58.74
2022-12-22T10:26:26.825Z,58.17
2022-12-22T10:31:28.984Z,58.40
2022-12-22T10:36:33.360Z,57.89
2022-12-22T10:41:48.828Z,57.54
2022-12-22T10:46:58.234Z,57.46
2022-12-22T10:52:15.826Z,56.89
2022-12-22T10:57:19.348Z,57.36
2022-12-22T11:02:23.227Z,57.24
2022-12-22T11:07:31.306Z,57.06
2022-12-22T11:12:56.885Z,56.95
2022-12-22T11:18:27.665Z,56.93
2022-12-22T11:23:39.679Z,56.65
2022-12-22T11:28:58.088Z,56.80
2022-12-22T11:34:21.442Z,56.66
2022-12-22T11:39:35.750Z,56.54
2022-12-22T11:44:55.733Z,56.30
2022-12-22T11:50:57.602Z,56.53
2022-12-22T11:56:23.607Z,56.39
2022-12-22T12:01:48.303Z,55.93
2022-12-22T12:07:06.087Z,55.99
2022-12-22T12:12:49.675Z,56.10
2022-12-22T12:18:30.845Z,56.09
2022-12-22T12:24:27.107Z,55.81
2022-12-22T12:29:42.085Z,55.68
2022-12-22T12:34:51.638Z,55.50
2022-12-22T12:40:22.883Z,55.52
2022-12-22T12:45:38.846Z,55.55
2022-12-22T12:50:42.329Z,55.47
2022-12-22T12:55:48.676Z,55.01
2022-12-22T13:00:57.105Z,55.19
2022-12-22T13:06:04.817Z,54.87
2022-12-22T13:11:11.167Z,54.79
2022-12-22T13:16:14.405Z,54.72
2022-12-22T13:26:48.616Z,54.50
2022-12-22T13:32:14.689Z,54.87
2022-12-22T13:37:23.490Z,54.64
2022-12-22T13:42:28.262Z,54.77
2022-12-22T13:47:32.840Z,54.79
2022-12-22T13:52:36.609Z,54.76
2022-12-22T13:57:40.931Z,54.58
2022-12-22T14:02:45.434Z,54.87
2022-12-22T14:08:03.174Z,55.08
2022-12-22T14:13:14.846Z,55.36
2022-12-22T14:18:27.141Z,55.14
2022-12-22T14:23:39.065Z,55.57
2022-12-22T14:28:48.404Z,55.67
2022-12-22T14:33:58.458Z,56.33
2022-12-22T14:39:10.330Z,56.17
2022-12-22T14:44:16.676Z,56.18
2022-12-22T14:49:20.499Z,55.96
2022-12-22T14:54:27.372Z,56.40
2022-12-22T14:59:30.954Z,56.12
2022-12-22T15:04:34.372Z,55.94
2022-12-22T15:10:13.864Z,56.00
2022-12-22T15:15:01.346Z,56.29
2022-12-22T15:20:06.949Z,56.77
2022-12-22T15:25:25.113Z,57.04
2022-12-22T15:30:28.747Z,56.88
2022-12-22T15:35:34.815Z,57.22
2022-12-22T15:40:40.190Z,56.80
2022-12-22T15:45:45.140Z,57.06
2022-12-22T15:50:48.643Z,57.49
2022-12-22T15:55:55.241Z,57.87
2022-12-22T16:00:58.702Z,57.92
2022-12-22T16:06:02.335Z,57.85
2022-12-22T16:11:08.363Z,57.82
2022-12-22T16:16:12.337Z,58.19
2022-12-22T16:21:22.286Z,58.10
2022-12-22T16:26:26.582Z,58.15
2022-12-22T16:31:29.976Z,58.18
2022-12-22T16:36:33.323Z,58.31
2022-12-22T16:41:37.228Z,58.56
2022-12-22T16:46:41.770Z,58.81
2022-12-22T16:51:50.163Z,58.70
2022-12-22T16:56:53.580Z,58.97
2022-12-22T17:01:58.338Z,58.76
2022-12-22T17:07:02.996Z,59.11
2022-12-22T17:12:06.497Z,58.83
2022-12-22T17:17:17.294Z,59.11
2022-12-22T17:22:34.807Z,59.00
2022-12-22T17:27:38.175Z,59.07
2022-12-22T17:32:41.726Z,59.11
2022-12-22T17:37:46.848Z,58.98
2022-12-22T17:42:50.717Z,59.02
2022-12-22T17:47:54.123Z,58.94
2022-12-22T17:52:58.026Z,59.11
2022-12-22T17:58:01.375Z,59.04
2022-12-22T18:03:04.804Z,59.18
2022-12-22T18:08:14.299Z,59.00
2022-12-22T18:13:23.354Z,59.11
2022-12-22T18:18:26.952Z,58.94
2022-12-22T18:23:33.036Z,59.04
2022-12-22T18:28:36.529Z,58.92
2022-12-22T18:33:39.947Z,58.80
2022-12-22T18:38:43.403Z,58.74
2022-12-22T18:43:46.945Z,58.76
2022-12-22T18:48:53.558Z,58.50
2022-12-22T18:53:57.444Z,58.47
2022-12-22T18:59:00.901Z,58.58
2022-12-22T19:04:05.119Z,58.15
2022-12-22T19:09:15.711Z,58.33
2022-12-22T19:14:22.468Z,58.32
2022-12-22T19:19:26.127Z,58.28
2022-12-22T19:24:29.671Z,57.97
2022-12-22T19:29:34.521Z,57.84
2022-12-22T19:34:38.017Z,57.80
2022-12-22T19:39:41.515Z,58.03
2022-12-22T19:44:45.172Z,57.88
2022-12-22T19:49:49.828Z,57.67
2022-12-22T19:54:53.402Z,57.82
2022-12-22T19:59:58.097Z,57.49
2022-12-22T20:05:01.630Z,57.80
2022-12-22T20:10:07.513Z,57.60
2022-12-22T20:15:26.998Z,57.78
2022-12-22T20:20:38.773Z,57.51
2022-12-22T20:25:45.811Z,57.66
2022-12-22T20:30:50.694Z,57.48
2022-12-22T20:35:55.835Z,57.32
2022-12-22T20:40:59.547Z,57.32
2022-12-22T20:46:12.760Z,57.35
2022-12-22T20:51:21.080Z,57.52
2022-12-22T20:56:36.776Z,57.36
2022-12-22T21:01:40.307Z,57.45
2022-12-22T21:06:52.815Z,57.35
2022-12-22T21:11:56.292Z,57.42
2022-12-22T21:17:00.439Z,57.71
2022-12-22T21:22:06.385Z,57.32
2022-12-22T21:27:19.692Z,57.68
2022-12-22T21:32:23.252Z,57.56
2022-12-22T21:37:26.828Z,57.63
2022-12-22T21:42:30.490Z,57.74
2022-12-22T21:47:34.127Z,57.83
2022-12-22T21:52:37.676Z,58.00
2022-12-22T21:57:41.750Z,57.95
2022-12-22T22:02:46.370Z,58.25
2022-12-22T22:07:49.970Z,58.38
2022-12-22T22:12:53.765Z,58.33
2022-12-22T22:18:02.973Z,58.52
2022-12-22T22:23:13.474Z,58.76
2022-12-22T22:28:16.874Z,58.77
2022-12-22T22:33:20.385Z,58.87
2022-12-22T22:38:23.800Z,58.92
2022-12-22T22:43:27.328Z,58.91
2022-12-22T22:48:30.791Z,59.07
2022-12-22T22:53:35.384Z,58.94
2022-12-22T22:58:38.680Z,59.05
2022-12-22T23:03:41.968Z,58.75
2022-12-22T23:08:48.640Z,58.98
2022-12-22T23:13:54.406Z,59.03
2022-12-22T23:18:57.880Z,58.94
2022-12-22T23:24:01.716Z,59.14
2022-12-22T23:29:06.417Z,59.01
2022-12-22T23:34:11.939Z,58.94
2022-12-22T23:39:15.325Z,58.85
2022-12-22T23:44:18.385Z,58.83
2022-12-22T23:49:21.494Z,58.90
2022-12-22T23:54:24.671Z,58.58
2022-12-22T23:59:27.908Z,58.87
